Time;durP1;ratioP1;P1;durP2;ratioP2;P2;SDS_P1;SDS_P2;PMS_P1;PMS_P2;Temp;Humidity;BMP_temperature;BMP_pressure;BME280_temperature;BME280_humidity;BME280_pressure;Samples;Min_cycle;Max_cycle;Signal;HPM_P1;HPM_P2
2021/07/23 00:01:32;;;;;;;12.53;10.63;;;19.50;99.90;;;;;;5093222;28;20177;-75
2021/07/23 00:03:58;;;;;;;12.00;10.80;;;19.60;99.90;;;;;;5076006;28;20201;-74
2021/07/23 00:06:24;;;;;;;11.60;10.60;;;19.60;99.90;;;;;;5093254;28;20655;-75
2021/07/23 00:08:49;;;;;;;11.40;10.40;;;19.70;99.90;;;;;;5093863;28;20620;-75
2021/07/23 00:11:15;;;;;;;11.43;10.43;;;19.80;99.90;;;;;;5075031;28;20173;-75
2021/07/23 00:13:41;;;;;;;11.70;10.60;;;19.80;99.90;;;;;;5075678;28;20181;-76
2021/07/23 00:16:07;;;;;;;11.17;10.17;;;19.80;99.90;;;;;;5094573;28;20173;-75
2021/07/23 00:18:32;;;;;;;12.00;10.90;;;19.80;99.90;;;;;;5076609;28;20231;-76
2021/07/23 00:20:58;;;;;;;11.23;10.03;;;19.70;99.90;;;;;;5075050;28;20215;-75
2021/07/23 00:23:24;;;;;;;10.80;9.70;;;19.80;99.90;;;;;;5092918;28;20171;-75
2021/07/23 00:25:49;;;;;;;11.27;10.23;;;19.80;99.90;;;;;;5092917;28;20173;-75
2021/07/23 00:28:15;;;;;;;11.33;10.13;;;19.80;99.90;;;;;;5092849;28;20723;-76
2021/07/23 00:30:41;;;;;;;10.73;9.73;;;19.80;99.90;;;;;;5093477;28;20161;-75
2021/07/23 00:33:06;;;;;;;11.23;10.17;;;19.70;99.90;;;;;;5074673;28;20169;-75
2021/07/23 00:35:32;;;;;;;10.47;9.47;;;19.80;99.90;;;;;;5092623;28;20177;-75
2021/07/23 00:37:58;;;;;;;10.80;9.80;;;19.80;99.90;;;;;;5094411;28;20661;-75
2021/07/23 00:40:24;;;;;;;10.33;9.43;;;19.80;99.90;;;;;;5096331;28;20171;-75
2021/07/23 00:42:50;;;;;;;10.73;9.80;;;19.70;99.90;;;;;;5096356;28;20169;-75
2021/07/23 00:45:18;;;;;;;11.47;10.33;;;19.80;99.90;;;;;;5096546;28;20561;-75
2021/07/23 00:47:46;;;;;;;10.93;9.93;;;19.70;99.90;;;;;;5096282;28;20685;-75
2021/07/23 00:50:12;;;;;;;11.13;10.00;;;19.70;99.90;;;;;;5096480;28;20176;-75
2021/07/23 00:52:38;;;;;;;11.50;10.30;;;19.70;99.90;;;;;;5096165;28;20164;-74
2021/07/23 00:55:06;;;;;;;11.80;10.30;;;19.70;99.90;;;;;;5096481;28;20532;-75
2021/07/23 00:57:32;;;;;;;10.43;9.43;;;19.70;99.90;;;;;;5095859;28;20259;-75
2021/07/23 01:00:00;;;;;;;10.63;9.67;;;19.70;99.90;;;;;;5096160;28;20252;-75
2021/07/23 01:02:26;;;;;;;13.47;10.47;;;19.70;99.90;;;;;;5078505;28;20640;-75
2021/07/23 01:04:52;;;;;;;11.27;10.10;;;19.60;99.90;;;;;;5077626;28;20257;-75
2021/07/23 01:07:18;;;;;;;10.33;9.43;;;19.60;99.90;;;;;;5096050;28;20204;-76
2021/07/23 01:09:43;;;;;;;12.77;9.70;;;19.60;99.90;;;;;;5077882;28;20191;-76
2021/07/23 01:12:10;;;;;;;11.23;10.23;;;19.50;99.90;;;;;;5077814;28;20180;-75
2021/07/23 01:14:38;;;;;;;11.00;9.90;;;19.50;99.90;;;;;;5095887;28;20164;-76
2021/07/23 01:17:04;;;;;;;12.57;10.10;;;19.40;99.90;;;;;;5077711;28;20287;-76
2021/07/23 01:19:37;;;;;;;11.73;10.67;;;19.50;99.90;;;;;;5095641;28;20165;-76
2021/07/23 01:22:06;;;;;;;11.33;9.57;;;19.50;99.90;;;;;;5095589;28;20632;-76
2021/07/23 01:24:32;;;;;;;11.93;10.57;;;19.50;99.90;;;;;;5095487;28;20188;-76
2021/07/23 01:26:59;;;;;;;11.10;9.97;;;19.50;99.90;;;;;;5094945;28;20192;-75
2021/07/23 01:29:25;;;;;;;21.07;10.27;;;19.40;99.90;;;;;;5094214;28;20164;-74
2021/07/23 01:31:50;;;;;;;10.63;9.63;;;19.30;99.90;;;;;;5094368;28;20183;-75
2021/07/23 01:34:16;;;;;;;11.17;10.13;;;19.20;99.90;;;;;;5094091;28;20180;-75
2021/07/23 01:36:41;;;;;;;10.93;9.77;;;19.10;99.90;;;;;;5093224;28;20196;-75
2021/07/23 01:39:08;;;;;;;12.47;10.33;;;19.10;99.90;;;;;;5094149;28;20714;-75
2021/07/23 01:41:35;;;;;;;13.13;10.77;;;19.10;99.90;;;;;;5093305;28;20226;-75
2021/07/23 01:44:00;;;;;;;10.47;9.47;;;19.00;99.90;;;;;;5092889;28;20237;-75
2021/07/23 01:46:26;;;;;;;11.27;10.27;;;19.00;99.90;;;;;;5092721;28;20169;-75
2021/07/23 01:48:51;;;;;;;11.97;10.73;;;19.00;99.90;;;;;;5074168;28;20168;-75
2021/07/23 01:51:17;;;;;;;11.50;10.43;;;18.90;99.90;;;;;;5086459;28;20216;-75
2021/07/23 01:53:43;;;;;;;11.17;10.07;;;18.80;99.90;;;;;;5091921;28;20187;-75
2021/07/23 01:56:09;;;;;;;11.40;10.30;;;18.80;99.90;;;;;;5087833;28;20555;-75
2021/07/23 01:58:34;;;;;;;11.83;10.63;;;18.80;99.90;;;;;;5092908;28;20209;-76
2021/07/23 02:01:00;;;;;;;12.13;10.23;;;18.70;99.90;;;;;;5102128;28;20171;-75
2021/07/23 02:03:26;;;;;;;11.77;10.60;;;18.80;99.90;;;;;;5095320;28;20255;-75
2021/07/23 02:05:51;;;;;;;13.33;10.33;;;18.70;99.90;;;;;;5113738;28;20172;-76
2021/07/23 02:08:17;;;;;;;11.27;10.10;;;18.60;99.90;;;;;;5114815;28;20187;-75
2021/07/23 02:10:43;;;;;;;11.97;10.77;;;18.70;99.90;;;;;;5115286;28;20179;-75
2021/07/23 02:13:08;;;;;;;11.77;10.73;;;18.60;99.90;;;;;;5114257;28;20171;-75
2021/07/23 02:15:34;;;;;;;13.87;10.30;;;18.60;99.90;;;;;;5096740;28;20176;-75
2021/07/23 02:17:59;;;;;;;11.80;10.57;;;18.60;99.90;;;;;;5096508;28;20219;-75
2021/07/23 02:20:25;;;;;;;12.50;10.77;;;18.50;99.90;;;;;;5114972;28;20552;-75
2021/07/23 02:22:51;;;;;;;12.33;10.60;;;18.50;99.90;;;;;;5114987;28;20172;-75
2021/07/23 02:25:17;;;;;;;11.47;10.30;;;18.50;99.90;;;;;;5114849;28;20673;-75
2021/07/23 02:27:42;;;;;;;13.77;10.57;;;18.40;99.90;;;;;;5116194;28;20687;-76
2021/07/23 02:30:08;;;;;;;10.83;9.93;;;18.40;99.90;;;;;;5097435;28;20182;-75
2021/07/23 02:32:34;;;;;;;12.77;11.23;;;18.40;99.90;;;;;;5086574;28;20657;-75
2021/07/23 02:35:00;;;;;;;11.27;10.23;;;18.30;99.90;;;;;;5071306;28;20183;-75
2021/07/23 02:37:25;;;;;;;11.60;10.40;;;18.30;99.90;;;;;;5063341;28;20196;-75
2021/07/23 02:39:51;;;;;;;11.47;9.90;;;18.30;99.90;;;;;;5080930;28;20255;-75
2021/07/23 02:42:16;;;;;;;10.87;9.87;;;18.30;99.90;;;;;;5082534;28;20204;-74
2021/07/23 02:44:42;;;;;;;10.93;9.97;;;18.50;99.90;;;;;;5080852;28;20233;-74
2021/07/23 02:47:08;;;;;;;11.90;10.80;;;18.50;99.90;;;;;;5062915;28;20283;-75
2021/07/23 02:49:33;;;;;;;10.83;9.73;;;18.50;99.90;;;;;;5066636;28;20203;-75
2021/07/23 02:51:59;;;;;;;11.47;10.37;;;18.40;99.90;;;;;;5080050;28;20196;-74
2021/07/23 02:54:25;;;;;;;11.47;10.37;;;18.40;99.90;;;;;;5081392;28;20240;-75
2021/07/23 02:56:50;;;;;;;11.37;10.37;;;18.30;99.90;;;;;;5069924;28;20212;-75
2021/07/23 02:59:16;;;;;;;11.30;10.23;;;18.20;99.90;;;;;;5093762;28;20196;-75
2021/07/23 03:01:41;;;;;;;11.80;10.60;;;18.10;99.90;;;;;;5093226;28;20178;-75
2021/07/23 03:04:07;;;;;;;11.90;10.63;;;18.00;99.90;;;;;;5076008;28;20203;-72
2021/07/23 03:06:33;;;;;;;11.27;10.17;;;18.00;99.90;;;;;;5087318;28;20197;-75
2021/07/23 03:08:58;;;;;;;11.40;10.30;;;18.10;99.90;;;;;;5064813;28;20238;-74
2021/07/23 03:11:24;;;;;;;11.63;10.47;;;18.10;99.90;;;;;;5070108;28;20180;-75
2021/07/23 03:13:49;;;;;;;10.87;9.77;;;18.10;99.90;;;;;;5080003;28;20231;-75
2021/07/23 03:16:15;;;;;;;12.40;11.10;;;18.10;99.90;;;;;;5070156;28;20180;-75
2021/07/23 03:18:44;;;;;;;11.23;10.07;;;18.00;99.90;;;;;;5074520;28;20247;-75
2021/07/23 03:21:10;;;;;;;11.37;10.27;;;18.00;99.90;;;;;;5080735;28;20248;-75
2021/07/23 03:23:36;;;;;;;13.97;10.70;;;18.00;99.90;;;;;;5081649;28;20276;-75
2021/07/23 03:26:08;;;;;;;10.67;9.60;;;17.90;99.90;;;;;;5081173;28;20169;-75
2021/07/23 03:28:34;;;;;;;12.17;10.97;;;17.90;99.90;;;;;;5079741;28;20272;-75
2021/07/23 03:31:00;;;;;;;11.37;10.37;;;17.90;99.90;;;;;;5074568;28;20173;-75
2021/07/23 03:33:25;;;;;;;12.77;11.67;;;17.90;99.90;;;;;;5055199;28;20283;-76
2021/07/23 03:35:51;;;;;;;11.93;10.80;;;17.80;99.90;;;;;;5073656;28;20165;-75
2021/07/23 03:38:17;;;;;;;12.97;10.60;;;17.80;99.90;;;;;;5069279;28;20204;-75
2021/07/23 03:40:43;;;;;;;12.13;10.93;;;17.60;99.90;;;;;;5093634;28;20172;-75
2021/07/23 03:43:09;;;;;;;12.83;10.60;;;17.60;99.90;;;;;;5086219;28;20177;-75
2021/07/23 03:45:35;;;;;;;13.27;10.93;;;17.70;99.90;;;;;;5082492;28;20199;-75
2021/07/23 03:48:00;;;;;;;12.27;11.07;;;17.70;99.90;;;;;;5066618;28;20586;-76
2021/07/23 03:50:26;;;;;;;12.93;11.67;;;17.70;99.90;;;;;;5067494;28;20548;-74
2021/07/23 03:52:51;;;;;;;12.00;10.83;;;17.60;99.90;;;;;;5082148;28;20227;-74
2021/07/23 03:55:17;;;;;;;12.80;11.57;;;17.50;99.90;;;;;;5083830;28;20259;-76
2021/07/23 03:57:43;;;;;;;14.83;11.20;;;17.50;99.90;;;;;;5067278;28;20215;-74
2021/07/23 04:00:09;;;;;;;15.63;11.50;;;17.50;99.90;;;;;;5081103;28;20743;-74
2021/07/23 04:02:35;;;;;;;11.67;10.57;;;17.50;99.90;;;;;;5076332;28;20238;-74
2021/07/23 04:05:02;;;;;;;13.73;11.37;;;17.50;99.90;;;;;;5095456;23;20243;-76
2021/07/23 04:07:31;;;;;;;12.53;11.27;;;17.50;99.90;;;;;;5092236;28;20257;-76
2021/07/23 04:09:57;;;;;;;13.67;11.37;;;17.50;99.90;;;;;;5091479;28;20165;-76
2021/07/23 04:12:23;;;;;;;12.67;11.03;;;17.50;99.90;;;;;;5075000;28;20626;-74
2021/07/23 04:14:48;;;;;;;11.37;10.37;;;17.50;99.90;;;;;;5102740;28;20219;-76
2021/07/23 04:17:14;;;;;;;14.67;11.93;;;17.50;99.90;;;;;;5098652;28;20179;-76
2021/07/23 04:19:39;;;;;;;12.47;11.17;;;17.50;99.90;;;;;;5117034;28;20681;-76
2021/07/23 04:22:06;;;;;;;12.77;11.47;;;17.60;99.90;;;;;;5098630;28;20623;-76
2021/07/23 04:24:31;;;;;;;16.50;11.40;;;17.70;99.90;;;;;;5116689;28;20211;-76
2021/07/23 04:26:57;;;;;;;12.03;10.83;;;17.70;99.90;;;;;;5117038;28;20534;-76
2021/07/23 04:29:23;;;;;;;13.23;11.80;;;17.70;99.90;;;;;;5115076;28;20156;-76
2021/07/23 04:31:49;;;;;;;13.27;11.87;;;17.60;99.90;;;;;;5087062;28;20164;-76
2021/07/23 04:34:15;;;;;;;13.30;11.90;;;17.70;99.90;;;;;;5068811;28;20225;-75
2021/07/23 04:36:40;;;;;;;12.93;11.63;;;17.80;99.90;;;;;;5083969;28;20218;-76
2021/07/23 04:39:06;;;;;;;12.73;11.47;;;17.90;99.90;;;;;;5085725;28;20544;-75
2021/07/23 04:41:32;;;;;;;13.10;11.93;;;17.90;99.90;;;;;;5089051;28;20184;-76
2021/07/23 04:43:57;;;;;;;12.33;11.20;;;18.00;99.90;;;;;;5067697;28;20196;-75
2021/07/23 04:46:23;;;;;;;12.77;11.40;;;18.00;99.90;;;;;;5087214;28;20188;-76
2021/07/23 04:48:49;;;;;;;12.33;11.07;;;17.90;99.90;;;;;;5095735;28;20191;-76
2021/07/23 04:51:15;;;;;;;12.37;10.33;;;17.90;99.90;;;;;;5096228;28;20168;-75
2021/07/23 04:53:40;;;;;;;12.07;10.87;;;18.00;99.90;;;;;;5091923;28;20174;-76
2021/07/23 04:56:07;;;;;;;14.23;11.00;;;18.00;99.90;;;;;;5071549;28;20184;-76
2021/07/23 04:58:33;;;;;;;14.47;10.77;;;18.10;99.90;;;;;;5096130;28;20169;-76
2021/07/23 05:00:58;;;;;;;12.10;10.30;;;18.10;99.90;;;;;;5096076;28;20566;-76
2021/07/23 05:03:38;;;;;;;12.60;11.50;;;18.10;99.90;;;;;;5095687;28;20165;-75
2021/07/23 05:06:08;;;;;;;12.63;11.40;;;18.10;99.90;;;;;;5079434;28;20209;-76
2021/07/23 05:08:35;;;;;;;14.80;10.87;;;18.30;99.90;;;;;;5056469;28;20173;-78
2021/07/23 05:11:02;;;;;;;12.93;11.53;;;18.30;99.90;;;;;;5056419;28;20197;-76
2021/07/23 05:13:31;;;;;;;12.50;11.20;;;18.30;99.90;;;;;;5057371;28;20711;-76
2021/07/23 05:15:57;;;;;;;11.50;10.40;;;18.30;99.90;;;;;;5074965;28;20196;-76
2021/07/23 05:18:25;;;;;;;14.93;12.00;;;18.40;99.90;;;;;;5077617;28;20177;-76
2021/07/23 05:20:51;;;;;;;14.40;11.33;;;18.40;99.90;;;;;;5095937;28;20161;-76
2021/07/23 05:23:17;;;;;;;11.60;10.40;;;18.50;99.90;;;;;;5076709;28;20176;-76
2021/07/23 05:25:42;;;;;;;12.80;10.67;;;18.50;99.90;;;;;;5095472;28;20618;-76
2021/07/23 05:28:08;;;;;;;14.43;10.70;;;18.50;99.90;;;;;;5095232;28;20637;-76
2021/07/23 05:30:34;;;;;;;11.63;10.63;;;18.60;99.90;;;;;;5095465;28;20217;-76
2021/07/23 05:32:59;;;;;;;12.40;11.20;;;18.60;99.90;;;;;;5076942;28;20172;-76
2021/07/23 05:35:25;;;;;;;12.27;10.83;;;18.60;99.90;;;;;;5076937;28;20196;-76
2021/07/23 05:37:51;;;;;;;12.10;10.90;;;18.70;99.90;;;;;;5095220;28;20249;-76
2021/07/23 05:40:16;;;;;;;11.70;10.47;;;18.70;99.90;;;;;;5076907;28;20180;-76
2021/07/23 05:42:43;;;;;;;11.93;10.73;;;18.70;99.90;;;;;;5094976;28;20763;-76
2021/07/23 05:45:09;;;;;;;12.30;11.17;;;18.80;99.90;;;;;;5094771;28;20204;-76
2021/07/23 05:47:34;;;;;;;11.63;10.30;;;18.90;99.90;;;;;;5094811;28;20168;-76
2021/07/23 05:50:00;;;;;;;12.93;10.90;;;19.00;99.90;;;;;;5094859;28;20172;-76
2021/07/23 05:52:26;;;;;;;12.20;11.10;;;19.00;99.90;;;;;;5094799;28;20172;-76
2021/07/23 05:54:51;;;;;;;12.33;11.13;;;19.20;99.90;;;;;;5094719;28;20692;-76
2021/07/23 05:57:17;;;;;;;11.70;10.50;;;19.20;99.90;;;;;;5094644;28;20168;-76
2021/07/23 05:59:45;;;;;;;11.73;10.63;;;19.30;99.90;;;;;;5094720;28;20633;-76
2021/07/23 06:02:11;;;;;;;13.60;10.87;;;19.30;99.90;;;;;;5094575;28;20172;-76
2021/07/23 06:04:37;;;;;;;11.37;10.37;;;19.30;99.90;;;;;;5094480;28;20208;-75
2021/07/23 06:07:04;;;;;;;13.00;10.97;;;19.50;99.90;;;;;;5094527;28;20157;-76
2021/07/23 06:09:30;;;;;;;11.17;10.17;;;19.50;99.90;;;;;;5094405;28;20547;-76
2021/07/23 06:11:56;;;;;;;12.50;11.07;;;19.60;99.90;;;;;;5094384;28;20251;-76
2021/07/23 06:14:21;;;;;;;12.53;11.00;;;19.70;99.90;;;;;;5076244;28;20318;-76
2021/07/23 06:16:47;;;;;;;11.70;10.57;;;19.80;99.90;;;;;;5094217;28;20164;-76
2021/07/23 06:19:12;;;;;;;13.87;10.73;;;19.80;99.90;;;;;;5076053;28;20660;-76
2021/07/23 06:21:38;;;;;;;10.90;9.77;;;19.90;99.90;;;;;;5094478;28;20164;-76
2021/07/23 06:24:04;;;;;;;12.73;10.40;;;19.90;99.90;;;;;;5094023;28;20188;-77
2021/07/23 06:26:30;;;;;;;11.47;10.37;;;20.00;99.90;;;;;;5094387;28;20662;-76
2021/07/23 06:28:55;;;;;;;14.00;10.47;;;20.00;99.90;;;;;;5076995;28;20218;-76
2021/07/23 06:31:21;;;;;;;11.53;10.40;;;20.10;99.90;;;;;;5094054;28;20167;-75
2021/07/23 06:33:47;;;;;;;11.17;10.07;;;20.10;99.90;;;;;;5093941;28;20191;-76
2021/07/23 06:36:13;;;;;;;13.17;10.60;;;20.00;99.90;;;;;;5074998;28;20605;-76
2021/07/23 06:38:38;;;;;;;11.67;10.60;;;20.10;99.90;;;;;;5094146;28;20164;-75
2021/07/23 06:41:06;;;;;;;13.60;10.63;;;20.20;99.90;;;;;;5093487;28;20205;-76
2021/07/23 06:43:32;;;;;;;11.03;9.93;;;20.20;99.90;;;;;;5093766;28;20256;-76
2021/07/23 06:45:59;;;;;;;12.60;10.70;;;20.30;99.90;;;;;;5075551;28;20192;-76
2021/07/23 06:48:25;;;;;;;12.67;10.87;;;20.30;99.90;;;;;;5094006;28;20173;-76
2021/07/23 06:50:50;;;;;;;11.40;10.20;;;20.30;99.90;;;;;;5093709;28;20701;-76
2021/07/23 06:53:17;;;;;;;11.07;9.97;;;20.40;99.90;;;;;;5093627;28;20169;-76
2021/07/23 06:55:43;;;;;;;12.60;10.70;;;20.50;99.90;;;;;;5093584;28;20271;-76
2021/07/23 06:58:09;;;;;;;11.60;10.50;;;20.60;99.90;;;;;;5093528;28;20250;-76
2021/07/23 07:00:35;;;;;;;12.87;9.87;;;20.60;99.90;;;;;;5093842;28;20171;-76
2021/07/23 07:03:01;;;;;;;11.70;10.67;;;20.70;99.90;;;;;;5093555;28;20169;-76
2021/07/23 07:05:27;;;;;;;11.20;10.17;;;20.70;99.90;;;;;;5074950;28;20216;-76
2021/07/23 07:07:53;;;;;;;13.23;10.87;;;20.70;99.90;;;;;;5093670;28;20169;-76
2021/07/23 07:10:19;;;;;;;11.37;10.23;;;20.80;99.90;;;;;;5093448;28;20187;-75
2021/07/23 07:12:44;;;;;;;11.67;10.57;;;20.80;99.90;;;;;;5093414;28;20243;-76
2021/07/23 07:15:10;;;;;;;10.80;9.70;;;20.70;99.90;;;;;;5093537;28;20188;-76
2021/07/23 07:17:36;;;;;;;12.73;11.43;;;20.80;99.90;;;;;;5093544;28;20196;-76
2021/07/23 07:20:02;;;;;;;11.50;10.40;;;20.80;99.90;;;;;;5077672;28;20596;-76
2021/07/23 07:22:28;;;;;;;11.03;10.03;;;21.00;99.90;;;;;;5093260;28;20173;-76
2021/07/23 07:24:54;;;;;;;12.10;10.60;;;21.10;99.90;;;;;;5093424;28;20218;-76
2021/07/23 07:27:20;;;;;;;11.00;9.40;;;21.20;99.90;;;;;;5075199;28;20181;-76
2021/07/23 07:29:46;;;;;;;12.00;10.73;;;21.20;99.90;;;;;;5075969;28;20168;-76
2021/07/23 07:32:12;;;;;;;11.77;10.63;;;21.30;99.90;;;;;;5093186;28;20251;-76
2021/07/23 07:34:38;;;;;;;11.50;10.40;;;21.20;99.90;;;;;;5093140;28;20269;-76
2021/07/23 07:37:05;;;;;;;11.80;10.70;;;21.20;99.90;;;;;;5093210;28;20175;-76
2021/07/23 07:39:31;;;;;;;11.43;10.43;;;21.30;99.90;;;;;;5075002;28;20172;-76
2021/07/23 07:41:57;;;;;;;11.90;10.17;;;21.50;99.90;;;;;;5093133;28;20168;-76
2021/07/23 07:44:23;;;;;;;14.43;11.23;;;21.60;99.90;;;;;;5074831;28;20195;-76
2021/07/23 07:46:49;;;;;;;11.87;10.73;;;21.60;99.90;;;;;;5076418;28;20246;-76
2021/07/23 07:49:16;;;;;;;11.83;10.63;;;21.60;99.90;;;;;;5079145;28;20204;-76
2021/07/23 07:51:42;;;;;;;12.50;11.30;;;21.70;99.90;;;;;;5079001;28;20226;-75
2021/07/23 07:54:08;;;;;;;12.83;10.07;;;21.80;99.90;;;;;;5097007;28;20548;-75
2021/07/23 07:56:33;;;;;;;11.90;10.70;;;21.80;99.90;;;;;;5097038;28;20252;-76
2021/07/23 07:58:59;;;;;;;11.60;10.53;;;21.90;99.90;;;;;;5097260;28;20573;-76
2021/07/23 08:01:24;;;;;;;11.23;10.17;;;21.80;99.90;;;;;;5079361;28;20176;-76
2021/07/23 08:03:50;;;;;;;12.00;10.87;;;21.90;99.90;;;;;;5096823;28;20165;-76
2021/07/23 08:06:23;;;;;;;11.90;10.67;;;22.10;99.90;;;;;;5078627;28;20576;-76
2021/07/23 08:08:51;;;;;;;12.00;10.70;;;22.10;99.90;;;;;;5078738;28;20169;-76
2021/07/23 08:11:18;;;;;;;11.40;10.17;;;22.20;99.90;;;;;;5097054;28;20188;-76
2021/07/23 08:13:44;;;;;;;11.73;10.63;;;22.30;99.90;;;;;;5078667;28;20168;-76
2021/07/23 08:16:11;;;;;;;12.00;9.73;;;22.40;99.90;;;;;;5078430;28;20193;-76
2021/07/23 08:18:37;;;;;;;11.47;10.30;;;22.50;99.90;;;;;;5096810;28;20167;-76
2021/07/23 08:21:04;;;;;;;20.07;11.23;;;22.50;99.90;;;;;;5078716;28;20164;-76
2021/07/23 08:23:31;;;;;;;13.97;11.70;;;22.50;99.90;;;;;;5096889;28;20175;-76
2021/07/23 08:25:57;;;;;;;15.83;11.23;;;22.70;99.90;;;;;;5096407;28;20239;-75
2021/07/23 08:28:22;;;;;;;15.53;12.10;;;22.70;99.90;;;;;;5096743;28;20252;-76
2021/07/23 08:30:48;;;;;;;17.27;11.83;;;22.70;99.90;;;;;;5096599;28;20192;-76
2021/07/23 08:33:14;;;;;;;13.43;10.80;;;22.80;99.90;;;;;;5096704;28;20187;-76
2021/07/23 08:35:41;;;;;;;12.20;11.20;;;23.00;99.90;;;;;;5096638;28;20200;-76
2021/07/23 08:38:06;;;;;;;19.40;11.10;;;23.20;99.90;;;;;;5096674;28;20195;-76
2021/07/23 08:40:32;;;;;;;12.73;11.33;;;23.30;99.90;;;;;;5096628;28;20582;-75
2021/07/23 08:43:00;;;;;;;12.50;11.20;;;23.30;99.90;;;;;;5096521;28;20543;-76
2021/07/23 08:45:26;;;;;;;13.30;11.13;;;23.20;99.90;;;;;;5096476;28;20199;-77
2021/07/23 08:47:52;;;;;;;12.80;11.50;;;23.30;99.90;;;;;;5080966;28;20176;-76
2021/07/23 08:50:18;;;;;;;12.80;11.07;;;23.50;99.90;;;;;;5096232;28;20235;-76
2021/07/23 08:52:45;;;;;;;12.67;11.37;;;23.70;99.90;;;;;;5096353;28;20621;-76
2021/07/23 08:55:15;;;;;;;12.20;10.87;;;23.70;99.90;;;;;;5096237;28;20188;-76
2021/07/23 08:57:42;;;;;;;12.73;11.50;;;23.90;99.90;;;;;;5095774;28;20165;-75
2021/07/23 09:00:10;;;;;;;14.73;11.70;;;23.90;99.90;;;;;;5096098;28;20168;-77
2021/07/23 09:02:54;;;;;;;13.57;12.13;;;23.80;99.90;;;;;;5096094;28;20191;-76
2021/07/23 09:05:21;;;;;;;12.83;11.60;;;23.90;99.90;;;;;;5095841;28;20293;-75
2021/07/23 09:07:47;;;;;;;14.03;12.73;;;24.10;99.90;;;;;;5077835;28;20659;-75
2021/07/23 09:10:25;;;;;;;13.27;12.07;;;24.20;99.90;;;;;;5095872;28;20169;-76
2021/07/23 09:12:52;;;;;;;14.40;11.67;;;24.30;99.90;;;;;;5095523;28;20163;-76
2021/07/23 09:15:22;;;;;;;12.57;11.37;;;24.40;99.90;;;;;;5077721;28;20575;-76
2021/07/23 09:17:49;;;;;;;14.03;12.63;;;24.50;99.90;;;;;;5095533;28;20172;-76
2021/07/23 09:20:15;;;;;;;13.40;12.07;;;24.40;99.90;;;;;;5096058;28;20524;-76
2021/07/23 09:22:49;;;;;;;13.57;12.17;;;24.50;99.90;;;;;;5095517;28;20176;-76
2021/07/23 09:25:15;;;;;;;15.57;12.87;;;24.60;99.90;;;;;;5095592;28;20211;-76
2021/07/23 09:27:41;;;;;;;11.30;10.20;;;24.60;99.90;;;;;;5095404;28;20161;-76
2021/07/23 09:30:09;;;;;;;12.00;10.70;;;24.80;99.90;;;;;;5095474;28;20168;-76
2021/07/23 09:32:35;;;;;;;13.57;10.63;;;25.00;99.90;;;;;;5095487;28;20161;-76
2021/07/23 09:35:13;;;;;;;13.50;10.90;;;25.00;99.90;;;;;;5095449;28;20192;-76
2021/07/23 09:37:52;;;;;;;13.27;11.63;;;25.10;99.90;;;;;;5077610;28;20172;-76
2021/07/23 09:40:18;;;;;;;12.17;10.97;;;25.20;99.90;;;;;;5095665;28;20156;-76
2021/07/23 09:42:44;;;;;;;14.60;11.37;;;25.20;99.90;;;;;;5095174;28;20583;-76
2021/07/23 09:45:10;;;;;;;12.50;11.30;;;25.40;99.90;;;;;;5094844;28;20196;-76
2021/07/23 09:47:35;;;;;;;14.60;11.60;;;25.40;99.90;;;;;;5076821;28;20173;-76
2021/07/23 09:50:02;;;;;;;12.03;10.80;;;25.40;99.90;;;;;;5094942;28;20215;-76
2021/07/23 09:52:29;;;;;;;12.20;11.10;;;25.40;99.90;;;;;;5094978;28;20656;-76
2021/07/23 09:54:54;;;;;;;12.83;11.57;;;25.40;99.90;;;;;;5094810;28;20676;-76
2021/07/23 09:57:26;;;;;;;12.57;11.07;;;25.50;99.90;;;;;;5094790;28;20225;-76
2021/07/23 10:00:01;;;;;;;15.30;11.37;;;25.50;99.90;;;;;;5076924;28;20164;-76
2021/07/23 10:02:32;;;;;;;13.03;11.73;;;25.70;99.90;;;;;;5094656;28;20156;-75
2021/07/23 10:05:06;;;;;;;12.57;11.37;;;25.70;99.90;;;;;;5094454;28;20208;-76
2021/07/23 10:07:43;;;;;;;12.33;10.50;;;25.80;99.90;;;;;;5104480;22;20225;-81
2021/07/23 10:10:13;;;;;;;15.17;12.17;;;25.80;99.90;;;;;;5072856;28;20148;-81
2021/07/23 10:12:41;;;;;;;16.00;11.40;;;25.90;99.90;;;;;;5073563;28;20229;-81
2021/07/23 10:15:07;;;;;;;12.60;11.30;;;25.80;99.90;;;;;;5072360;28;20192;-81
2021/07/23 10:17:34;;;;;;;13.07;10.70;;;25.80;99.90;;;;;;5055139;28;20190;-81
2021/07/23 10:20:01;;;;;;;13.37;12.10;;;25.90;99.90;;;;;;5054211;28;20170;-81
2021/07/23 10:22:27;;;;;;;12.17;10.57;;;26.00;99.90;;;;;;5072342;28;20169;-83
2021/07/23 10:24:54;;;;;;;12.80;11.47;;;26.10;99.90;;;;;;5054648;28;20599;-82
2021/07/23 10:27:23;;;;;;;12.43;11.10;;;26.20;99.90;;;;;;5055305;28;20186;-82
2021/07/23 10:29:53;;;;;;;12.47;11.17;;;26.20;99.90;;;;;;5055255;28;20178;-83
2021/07/23 10:32:35;;;;;;;13.10;11.20;;;26.30;99.90;;;;;;5059370;28;20158;-82
2021/07/23 10:35:15;;;;;;;13.10;11.77;;;26.40;99.90;;;;;;5057594;28;20161;-83
2021/07/23 10:37:55;;;;;;;12.73;11.40;;;26.50;99.90;;;;;;5054975;28;20219;-81
2021/07/23 10:40:22;;;;;;;12.13;11.00;;;26.60;99.90;;;;;;5054918;28;20208;-81
2021/07/23 10:42:49;;;;;;;12.40;11.10;;;26.60;99.90;;;;;;5072282;28;20200;-81
2021/07/23 10:45:19;;;;;;;13.97;11.27;;;26.60;99.90;;;;;;5053959;28;20268;-81
2021/07/23 10:47:50;;;;;;;14.27;11.00;;;26.60;99.90;;;;;;5071835;28;20178;-83
2021/07/23 10:50:28;;;;;;;12.13;10.73;;;26.60;99.90;;;;;;5055399;28;20169;-83
2021/07/23 10:52:53;;;;;;;11.90;10.37;;;26.80;99.90;;;;;;5072753;28;20168;-82
2021/07/23 10:55:21;;;;;;;11.10;10.20;;;27.00;99.90;;;;;;5055470;28;20193;-82
2021/07/23 10:58:05;;;;;;;13.60;10.60;;;26.90;99.90;;;;;;5072794;28;20201;-82
2021/07/23 11:00:46;;;;;;;11.53;10.40;;;26.80;99.90;;;;;;5072993;28;20189;-82
2021/07/23 11:03:37;;;;;;;12.03;10.90;;;26.80;99.90;;;;;;5054614;28;20181;-82
2021/07/23 11:06:22;;;;;;;11.57;10.37;;;26.80;99.90;;;;;;5072131;28;20173;-82
2021/07/23 11:08:55;;;;;;;11.87;10.63;;;27.00;99.90;;;;;;5055010;28;20173;-82
2021/07/23 11:11:25;;;;;;;11.30;10.40;;;27.10;99.90;;;;;;5054114;28;20166;-82
2021/07/23 11:13:50;;;;;;;11.33;10.33;;;27.30;99.90;;;;;;5071619;28;20170;-83
2021/07/23 11:16:18;;;;;;;11.90;10.80;;;27.50;99.90;;;;;;5054376;28;20209;-83
2021/07/23 11:18:55;;;;;;;12.20;10.90;;;27.50;99.90;;;;;;5071792;28;20166;-82
2021/07/23 11:21:22;;;;;;;16.30;11.20;;;27.60;99.90;;;;;;5071477;28;20165;-82
2021/07/23 11:23:48;;;;;;;12.23;11.13;;;27.60;99.90;;;;;;5072174;28;20173;-83
2021/07/23 11:26:24;;;;;;;11.83;10.73;;;27.50;99.90;;;;;;5071876;28;20185;-82
2021/07/23 11:28:53;;;;;;;12.40;11.10;;;27.50;99.90;;;;;;5054567;28;20162;-81
2021/07/23 11:31:29;;;;;;;11.70;10.60;;;27.50;99.90;;;;;;5072542;28;20161;-81
2021/07/23 11:33:55;;;;;;;12.20;11.03;;;27.60;99.90;;;;;;5072409;28;20168;-83
2021/07/23 11:36:38;;;;;;;11.13;10.23;;;27.70;99.90;;;;;;5071581;28;20579;-82
2021/07/23 11:39:06;;;;;;;11.40;10.40;;;27.60;99.90;;;;;;5053754;28;20237;-82
2021/07/23 11:41:33;;;;;;;11.27;10.27;;;27.50;99.90;;;;;;5053055;28;20181;-82
2021/07/23 11:44:07;;;;;;;12.37;10.03;;;27.70;99.90;;;;;;5053253;28;20182;-83
2021/07/23 11:46:32;;;;;;;11.23;10.10;;;27.60;99.90;;;;;;5071785;28;20182;-82
2021/07/23 11:49:01;;;;;;;12.90;10.70;;;27.80;99.90;;;;;;5047071;28;20188;-78
2021/07/23 11:51:44;;;;;;;11.67;10.57;;;27.70;99.90;;;;;;5039398;28;20170;-78
2021/07/23 11:54:10;;;;;;;12.70;11.53;;;27.50;99.90;;;;;;5052134;28;20173;-76
2021/07/23 11:56:39;;;;;;;11.97;10.83;;;27.50;99.90;;;;;;5039899;28;20204;-79
2021/07/23 11:59:05;;;;;;;12.87;11.60;;;27.70;99.90;;;;;;5046615;28;20193;-76
2021/07/23 12:01:38;;;;;;;11.73;10.60;;;27.50;99.90;;;;;;5038769;28;20190;-77
2021/07/23 12:04:04;;;;;;;11.57;10.60;;;27.60;99.90;;;;;;5055609;28;20271;-77
2021/07/23 12:06:30;;;;;;;11.30;10.33;;;27.60;99.90;;;;;;5034451;28;20759;-77
2021/07/23 12:09:00;;;;;;;11.40;10.40;;;27.80;99.90;;;;;;5058311;28;20178;-78
2021/07/23 12:11:29;;;;;;;11.70;10.60;;;28.10;99.90;;;;;;5045957;28;20185;-78
2021/07/23 12:13:55;;;;;;;10.73;9.73;;;28.10;99.90;;;;;;5035999;28;20185;-78
2021/07/23 12:16:21;;;;;;;11.50;10.50;;;28.10;99.90;;;;;;5049532;28;20284;-78
2021/07/23 12:19:08;;;;;;;14.43;11.30;;;28.20;99.90;;;;;;5028550;28;20182;-78
2021/07/23 12:21:36;;;;;;;13.90;10.57;;;28.40;99.90;;;;;;5045585;28;20252;-78
2021/07/23 12:24:04;;;;;;;13.63;10.27;;;28.70;99.90;;;;;;5036382;28;20205;-77
2021/07/23 12:26:38;;;;;;;11.73;10.53;;;28.80;99.90;;;;;;5033943;28;20688;-76
2021/07/23 12:29:05;;;;;;;12.13;10.40;;;28.90;99.90;;;;;;5052553;28;20197;-78